createdAt,value
2019-04-21T00:00:11.585Z,1027.40
2019-04-21T00:35:13.935Z,1027.27
2019-04-21T09:30:08.819Z,1023.60
2019-04-21T09:35:08.600Z,1023.48
2019-04-21T09:40:03.090Z,1023.48
2019-04-21T09:45:10.461Z,1023.37
2019-04-21T09:50:05.143Z,1023.37
2019-04-21T09:55:15.670Z,1023.36
2019-04-21T10:00:24.421Z,1023.36
2019-04-21T10:05:02.102Z,1023.14
2019-04-21T10:15:02.517Z,1022.99
2019-04-21T10:20:00.942Z,1022.99
2019-04-21T10:25:00.782Z,1022.86
2019-04-21T10:30:02.141Z,1022.86
2019-04-21T10:35:01.330Z,1022.77
2019-04-21T10:40:00.597Z,1022.77
2019-04-21T10:45:01.477Z,1022.67
2019-04-21T10:50:00.719Z,1022.67
2019-04-21T11:00:04.110Z,1022.48
2019-04-21T11:05:00.978Z,1022.41
2019-04-21T11:10:00.573Z,1022.41
2019-04-21T11:15:01.502Z,1022.29
2019-04-21T11:20:01.305Z,1022.29
2019-04-21T11:25:03.251Z,1022.21
2019-04-21T11:30:02.489Z,1022.21
2019-04-21T11:35:01.377Z,1022.12
2019-04-21T11:40:13.011Z,1022.12
2019-04-21T11:45:01.056Z,1021.98
2019-04-21T11:50:01.302Z,1021.98
2019-04-21T11:55:00.753Z,1021.86
2019-04-21T12:00:02.258Z,1021.86
2019-04-21T12:05:01.611Z,1021.87
2019-04-21T12:15:02.367Z,1021.66
2019-04-21T12:20:01.262Z,1021.66
2019-04-21T12:25:01.165Z,1021.57
2019-04-21T12:30:03.798Z,1021.57
2019-04-21T12:45:01.832Z,1021.26
2019-04-21T12:55:01.963Z,1021.04
2019-04-21T13:00:01.045Z,1021.04
2019-04-21T13:05:02.278Z,1020.86
2019-04-21T13:15:04.449Z,1020.68
2019-04-21T13:25:02.689Z,1020.72
2019-04-21T13:30:02.409Z,1020.72
2019-04-21T13:35:01.476Z,1020.56
2019-04-21T13:45:08.106Z,1020.45
2019-04-21T14:00:03.479Z,1020.32
2019-04-21T14:15:04.038Z,1020.13
2019-04-21T14:25:02.015Z,1020.04
2019-04-21T14:30:02.746Z,1020.04
2019-04-21T14:45:01.265Z,1019.81
2019-04-21T14:50:00.646Z,1019.81
2019-04-21T15:00:01.115Z,1019.71
2019-04-21T15:10:18.091Z,1019.68
2019-04-21T15:15:02.353Z,1019.63
2019-04-21T15:30:04.708Z,1019.53
2019-04-21T15:45:02.641Z,1019.36
2019-04-21T16:00:02.883Z,1019.26
2019-04-21T16:05:01.423Z,1019.24
2019-04-21T16:10:09.662Z,1019.24
2019-04-21T16:15:01.088Z,1019.23
2019-04-21T16:25:01.310Z,1019.08
2019-04-21T16:30:04.072Z,1019.08
2019-04-21T16:35:14.089Z,1019.07
2019-04-21T16:40:01.676Z,1019.07
2019-04-21T16:45:01.314Z,1018.99
2019-04-21T16:50:03.404Z,1018.99
2019-04-21T16:55:06.644Z,1018.94
2019-04-21T17:00:02.358Z,1018.94
2019-04-21T17:05:00.807Z,1018.89
2019-04-21T17:10:02.400Z,1018.89
2019-04-21T17:25:04.542Z,1018.72
2019-04-21T17:30:01.547Z,1018.72
2019-04-21T17:35:03.843Z,1018.72
2019-04-21T17:40:09.128Z,1018.72
2019-04-21T17:45:01.678Z,1018.73
2019-04-21T17:50:07.643Z,1018.73
2019-04-21T17:55:26.122Z,1018.77
2019-04-21T18:20:03.716Z,1018.76
2019-04-21T18:25:31.633Z,1018.87
2019-04-21T18:30:02.358Z,1018.87
2019-04-21T18:35:13.941Z,1018.88
2019-04-21T18:40:29.612Z,1018.88
2019-04-21T18:50:03.959Z,1018.87
2019-04-21T18:55:35.878Z,1018.95
2019-04-21T19:00:31.191Z,1018.95
2019-04-21T19:05:21.107Z,1018.96
2019-04-21T19:55:04.384Z,1019.01
2019-04-21T20:00:10.150Z,1019.01
2019-04-21T20:05:13.426Z,1018.82
2019-04-21T20:25:13.905Z,1018.78
2019-04-21T20:40:24.673Z,1018.75
2019-04-21T21:45:22.143Z,1018.55
2019-04-21T21:50:20.625Z,1018.55
2019-04-21T21:55:01.804Z,1018.49
2019-04-21T22:00:15.277Z,1018.49
2019-04-21T22:05:16.454Z,1018.49
2019-04-21T22:10:02.562Z,1018.49
2019-04-21T22:15:22.576Z,1018.53
2019-04-21T22:30:14.240Z,1018.54
2019-04-21T22:35:11.139Z,1018.52
2019-04-21T22:40:23.409Z,1018.52
2019-04-21T22:45:01.257Z,1018.37
2019-04-21T22:50:02.759Z,1018.37
2019-04-21T22:55:19.322Z,1018.36
2019-04-21T23:00:14.575Z,1018.36
2019-04-21T23:15:19.391Z,1018.19
2019-04-21T23:35:18.758Z,1018.21
2019-04-21T23:45:08.569Z,1018.16
